TimeEDT,TemperatureF,Dew PointF,Humidity,Sea Level PressureIn,VisibilityMPH,Wind Direction,Wind SpeedMPH,Gust SpeedMPH,PrecipitationIn,Events,Conditions,WindDirDegrees,DateUTC
12:15 AM,67.5,62.8,85,30.14,10.0,Calm,Calm,-,N/A,,Clear,0,2013-08-21 04:15:00
12:35 AM,67.5,62.8,85,30.14,10.0,Calm,Calm,-,N/A,,Scattered Clouds,0,2013-08-21 04:35:00
12:55 AM,67.3,62.8,85,30.14,10.0,Calm,Calm,-,N/A,,Clear,0,2013-08-21 04:55:00
1:15 AM,66.0,61.7,86,30.14,7.0,Calm,Calm,-,N/A,,Clear,0,2013-08-21 05:15:00
1:35 AM,65.8,61.7,86,30.14,7.0,Calm,Calm,-,N/A,,Clear,0,2013-08-21 05:35:00
1:55 AM,65.7,61.7,87,30.14,7.0,Calm,Calm,-,N/A,,Clear,0,2013-08-21 05:55:00
2:15 AM,65.3,61.5,88,30.14,7.0,Calm,Calm,-,N/A,,Clear,0,2013-08-21 06:15:00
2:35 AM,64.4,60.6,88,30.13,7.0,Calm,Calm,-,N/A,,Clear,0,2013-08-21 06:35:00
2:55 AM,64.6,60.8,88,30.13,7.0,Calm,Calm,-,N/A,,Clear,0,2013-08-21 06:55:00
3:15 AM,64.2,60.3,87,30.13,5.0,Calm,Calm,-,N/A,,Clear,0,2013-08-21 07:15:00
3:35 AM,64.4,60.8,88,30.13,5.0,Calm,Calm,-,N/A,,Clear,0,2013-08-21 07:35:00
3:55 AM,63.9,60.4,89,30.13,4.0,Calm,Calm,-,N/A,,Clear,0,2013-08-21 07:55:00
4:15 AM,64.0,60.6,89,30.13,4.0,East,3.5,-,N/A,,Clear,100,2013-08-21 08:15:00
4:35 AM,64.0,60.6,89,30.12,4.0,Calm,Calm,-,N/A,,Clear,0,2013-08-21 08:35:00
4:55 AM,63.0,59.7,89,30.12,4.0,Calm,Calm,-,N/A,,Clear,0,2013-08-21 08:55:00
5:15 AM,62.8,59.4,89,30.13,3.0,ESE,3.5,-,N/A,,Scattered Clouds,120,2013-08-21 09:15:00
5:35 AM,63.5,60.1,89,30.13,4.0,Calm,Calm,-,N/A,,Mostly Cloudy,0,2013-08-21 09:35:00
5:55 AM,63.1,59.9,89,30.12,3.0,Calm,Calm,-,N/A,,Scattered Clouds,0,2013-08-21 09:55:00
6:15 AM,63.1,59.9,89,30.13,3.0,Calm,Calm,-,N/A,,Scattered Clouds,0,2013-08-21 10:15:00
6:35 AM,63.1,59.9,89,30.13,3.0,Calm,Calm,-,N/A,,Mostly Cloudy,0,2013-08-21 10:35:00
6:55 AM,63.0,59.9,90,30.14,3.0,Calm,Calm,-,N/A,,Mostly Cloudy,0,2013-08-21 10:55:00
7:15 AM,62.8,59.5,89,30.15,3.0,Calm,Calm,-,N/A,,Mostly Cloudy,0,2013-08-21 11:15:00
7:35 AM,63.3,60.1,89,30.16,1.0,Calm,Calm,-,N/A,,Mostly Cloudy,0,2013-08-21 11:35:00
7:55 AM,64.2,61.0,89,30.16,1.8,Calm,Calm,-,N/A,,Mostly Cloudy,0,2013-08-21 11:55:00
8:15 AM,66.6,63.5,90,30.16,1.2,Calm,Calm,-,N/A,,Mist,0,2013-08-21 12:15:00
8:35 AM,69.3,66.0,89,30.17,2.0,Calm,Calm,-,N/A,,Clear,0,2013-08-21 12:35:00
8:55 AM,70.7,66.7,87,30.17,3.0,Calm,Calm,-,N/A,,Clear,0,2013-08-21 12:55:00
9:15 AM,72.7,67.5,84,30.17,7.0,Calm,Calm,-,N/A,,Clear,0,2013-08-21 13:15:00
9:35 AM,74.7,67.8,79,30.17,10.0,SSW,3.5,-,N/A,,Clear,200,2013-08-21 13:35:00
9:55 AM,76.1,67.6,75,30.17,10.0,Calm,Calm,-,N/A,,Clear,0,2013-08-21 13:55:00
10:15 AM,77.5,67.8,72,30.16,10.0,Calm,Calm,-,N/A,,Clear,0,2013-08-21 14:15:00
10:35 AM,79.0,68.2,69,30.17,10.0,Calm,Calm,-,N/A,,Clear,0,2013-08-21 14:35:00
10:55 AM,79.5,67.5,66,30.17,10.0,Calm,Calm,-,N/A,,Clear,0,2013-08-21 14:55:00
11:15 AM,80.4,67.6,65,30.18,10.0,West,3.5,-,N/A,,Clear,260,2013-08-21 15:15:00
11:35 AM,81.0,66.7,62,30.17,10.0,Calm,Calm,-,N/A,,Scattered Clouds,0,2013-08-21 15:35:00
11:55 AM,81.5,66.4,60,30.17,10.0,Calm,Calm,-,N/A,,Scattered Clouds,0,2013-08-21 15:55:00
12:15 PM,82.8,66.0,57,30.17,10.0,NW,3.5,-,N/A,,Mostly Cloudy,320,2013-08-21 16:15:00
12:35 PM,82.9,65.8,56,30.16,10.0,WNW,3.5,-,N/A,,Scattered Clouds,290,2013-08-21 16:35:00
12:55 PM,83.5,63.3,50,30.16,10.0,Calm,Calm,-,N/A,,Scattered Clouds,0,2013-08-21 16:55:00
1:15 PM,84.4,62.4,47,30.15,10.0,SW,4.6,-,N/A,,Clear,220,2013-08-21 17:15:00
1:35 PM,84.6,62.6,48,30.14,10.0,SSW,5.8,-,N/A,Thunderstorm,Scattered Clouds,200,2013-08-21 17:35:00
1:55 PM,84.9,61.3,45,30.14,10.0,Calm,Calm,-,N/A,,Scattered Clouds,0,2013-08-21 17:55:00
2:15 PM,85.1,62.6,47,30.14,10.0,Calm,Calm,-,N/A,,Clear,0,2013-08-21 18:15:00
2:35 PM,84.0,61.5,47,30.13,10.0,WSW,3.5,-,N/A,,Scattered Clouds,250,2013-08-21 18:35:00
2:55 PM,86.0,61.7,44,30.12,10.0,Calm,Calm,-,N/A,,Clear,0,2013-08-21 18:55:00
3:15 PM,86.9,60.8,41,30.11,10.0,WSW,3.5,-,N/A,,Clear,240,2013-08-21 19:15:00
3:35 PM,86.7,61.3,42,30.11,10.0,West,8.1,-,N/A,,Clear,260,2013-08-21 19:35:00
3:55 PM,86.9,61.5,42,30.11,10.0,WSW,5.8,-,N/A,,Scattered Clouds,240,2013-08-21 19:55:00
4:15 PM,86.7,63.0,45,30.11,10.0,West,8.1,-,N/A,,Scattered Clouds,270,2013-08-21 20:15:00
4:35 PM,87.1,64.0,46,30.10,10.0,WSW,6.9,-,N/A,,Clear,250,2013-08-21 20:35:00
4:55 PM,87.1,63.1,45,30.10,10.0,West,8.1,-,N/A,,Clear,280,2013-08-21 20:55:00
5:15 PM,86.7,63.3,45,30.09,10.0,West,10.4,-,N/A,,Clear,270,2013-08-21 21:15:00
5:35 PM,86.2,63.0,46,30.09,10.0,West,10.4,-,N/A,,Clear,260,2013-08-21 21:35:00
5:55 PM,86.0,63.1,46,30.08,10.0,West,10.4,-,N/A,,Clear,270,2013-08-21 21:55:00
6:15 PM,85.3,63.5,48,30.09,10.0,WNW,4.6,-,N/A,,Clear,290,2013-08-21 22:15:00
6:35 PM,84.9,63.7,49,30.08,10.0,West,6.9,-,N/A,,Clear,260,2013-08-21 22:35:00
6:55 PM,84.2,63.7,50,30.09,10.0,West,4.6,-,N/A,,Clear,260,2013-08-21 22:55:00
7:15 PM,83.5,63.3,50,30.08,10.0,West,4.6,-,N/A,,Clear,270,2013-08-21 23:15:00
7:35 PM,82.4,63.9,53,30.08,10.0,WSW,5.8,-,N/A,,Clear,250,2013-08-21 23:35:00
7:55 PM,81.0,64.4,57,30.08,10.0,WSW,3.5,-,N/A,,Clear,250,2013-08-21 23:55:00
8:15 PM,78.8,65.3,63,30.07,10.0,WSW,3.5,-,N/A,,Clear,240,2013-08-22 00:15:00
8:35 PM,75.6,66.2,73,30.07,10.0,SW,4.6,-,N/A,,Clear,230,2013-08-22 00:35:00
8:55 PM,72.7,66.2,80,30.07,10.0,SSW,3.5,-,N/A,,Clear,200,2013-08-22 00:55:00
9:15 PM,72.7,65.5,78,30.07,10.0,SW,3.5,-,N/A,,Clear,230,2013-08-22 01:15:00
9:35 PM,70.2,64.8,83,30.09,10.0,Calm,Calm,-,N/A,,Clear,0,2013-08-22 01:35:00
9:55 PM,69.4,64.6,84,30.11,10.0,Calm,Calm,-,N/A,,Clear,0,2013-08-22 01:55:00
10:15 PM,68.4,63.9,85,30.11,10.0,Calm,Calm,-,N/A,,Clear,0,2013-08-22 02:15:00
10:35 PM,67.3,62.8,85,30.12,10.0,Calm,Calm,-,N/A,,Clear,0,2013-08-22 02:35:00
10:55 PM,66.9,62.6,86,30.12,10.0,Calm,Calm,-,N/A,,Clear,0,2013-08-22 02:55:00
11:15 PM,66.2,61.9,86,30.12,10.0,Calm,Calm,-,N/A,,Clear,0,2013-08-22 03:15:00
11:35 PM,65.7,61.5,86,30.12,10.0,Calm,Calm,-,N/A,,Clear,0,2013-08-22 03:35:00
11:55 PM,65.5,61.3,86,30.12,7.0,Calm,Calm,-,N/A,,Clear,0,2013-08-22 03:55:00